createdAt,value
2018-10-18T00:01:29.680Z,8.50
2018-10-18T00:03:58.089Z,8.40
2018-10-18T00:06:26.348Z,8.40
2018-10-18T00:08:54.661Z,8.40
2018-10-18T00:11:23.081Z,8.40
2018-10-18T00:13:51.362Z,8.40
2018-10-18T00:16:20.346Z,8.40
2018-10-18T00:18:48.612Z,8.30
2018-10-18T00:21:17.000Z,8.30
2018-10-18T00:23:45.340Z,8.30
2018-10-18T00:26:13.630Z,8.30
2018-10-18T00:28:42.129Z,8.20
2018-10-18T00:31:10.511Z,8.20
2018-10-18T00:33:38.759Z,8.10
2018-10-18T00:36:07.049Z,8.00
2018-10-18T00:38:35.780Z,8.00
2018-10-18T00:41:04.240Z,8.00
2018-10-18T00:43:32.502Z,8.00
2018-10-18T00:46:01.025Z,8.00
2018-10-18T00:48:29.321Z,7.90
2018-10-18T00:50:57.661Z,8.00
2018-10-18T00:53:26.263Z,8.00
2018-10-18T00:55:54.551Z,8.00
2018-10-18T00:58:23.139Z,7.90
2018-10-18T01:00:51.424Z,7.80
2018-10-18T01:03:19.820Z,7.80
2018-10-18T01:05:48.431Z,7.80
2018-10-18T01:08:17.057Z,7.90
2018-10-18T01:10:45.815Z,7.80
2018-10-18T01:13:14.516Z,7.80
2018-10-18T01:15:42.812Z,7.80
2018-10-18T01:18:11.404Z,7.70
2018-10-18T01:20:39.876Z,7.70
2018-10-18T01:23:09.050Z,7.60
2018-10-18T01:25:37.618Z,7.70
2018-10-18T01:28:05.879Z,7.60
2018-10-18T01:30:34.527Z,7.60
2018-10-18T01:33:03.044Z,7.60
2018-10-18T01:35:31.292Z,7.60
2018-10-18T01:37:59.630Z,7.50
2018-10-18T01:40:28.033Z,7.40
2018-10-18T01:42:56.576Z,7.40
2018-10-18T01:45:24.927Z,7.40
2018-10-18T01:47:53.341Z,7.40
2018-10-18T01:50:22.182Z,7.40
2018-10-18T01:52:50.768Z,7.30
2018-10-18T01:55:19.016Z,7.40
2018-10-18T01:57:47.264Z,7.40
2018-10-18T02:00:15.956Z,7.30
2018-10-18T02:02:44.638Z,7.30
2018-10-18T02:05:12.938Z,7.30
2018-10-18T02:07:41.339Z,7.30
2018-10-18T02:10:10.142Z,7.30
2018-10-18T02:12:38.672Z,7.20
2018-10-18T02:15:09.696Z,7.20
2018-10-18T02:17:38.165Z,7.20
2018-10-18T02:20:07.281Z,7.10
2018-10-18T02:22:36.071Z,7.10
2018-10-18T02:25:04.782Z,7.10
2018-10-18T02:27:33.155Z,7.10
2018-10-18T02:30:01.644Z,7.10
2018-10-18T02:32:30.557Z,7.00
2018-10-18T02:34:58.965Z,7.10
2018-10-18T02:37:27.748Z,7.10
2018-10-18T02:39:55.999Z,7.10
2018-10-18T02:42:24.247Z,7.10
2018-10-18T02:44:52.956Z,7.00
2018-10-18T02:47:21.215Z,7.00
2018-10-18T02:49:50.084Z,6.90
2018-10-18T02:52:18.489Z,6.90
2018-10-18T02:54:46.819Z,6.80
2018-10-18T02:57:15.067Z,6.80
2018-10-18T02:59:43.484Z,6.80
2018-10-18T03:02:11.747Z,6.80
2018-10-18T03:04:40.040Z,6.70
2018-10-18T03:07:08.663Z,6.70
2018-10-18T03:09:37.960Z,6.70
2018-10-18T03:12:06.343Z,6.70
2018-10-18T03:14:34.911Z,6.70
2018-10-18T03:17:03.454Z,6.60
2018-10-18T03:19:32.078Z,6.60
2018-10-18T03:22:00.454Z,6.50
2018-10-18T03:24:28.993Z,6.50
2018-10-18T03:26:57.595Z,6.50
2018-10-18T03:29:26.464Z,6.50
2018-10-18T03:31:54.715Z,6.50
2018-10-18T03:34:22.991Z,6.50
2018-10-18T03:36:51.678Z,6.50
2018-10-18T03:39:20.408Z,6.50
2018-10-18T03:41:48.664Z,6.50
2018-10-18T03:44:17.286Z,6.50
2018-10-18T03:46:45.815Z,6.40
2018-10-18T03:49:14.089Z,6.40
2018-10-18T03:51:42.524Z,6.40
2018-10-18T03:54:11.043Z,6.40
2018-10-18T03:56:39.656Z,6.30
2018-10-18T03:59:08.340Z,6.40
2018-10-18T04:01:36.922Z,6.40
2018-10-18T04:04:05.393Z,6.40
2018-10-18T04:06:34.633Z,6.40
2018-10-18T04:09:03.043Z,6.40
2018-10-18T04:11:31.420Z,6.40
2018-10-18T04:13:59.944Z,6.40
2018-10-18T04:16:29.580Z,6.30
2018-10-18T04:18:57.853Z,6.30
2018-10-18T04:21:26.112Z,6.30
2018-10-18T04:23:55.197Z,6.30
2018-10-18T04:26:23.983Z,6.30
2018-10-18T04:28:52.559Z,6.30
2018-10-18T04:31:21.020Z,6.30
2018-10-18T04:33:49.661Z,6.20
2018-10-18T04:36:18.249Z,6.20
2018-10-18T04:38:46.579Z,6.20
2018-10-18T04:41:15.139Z,6.10
2018-10-18T04:43:43.711Z,6.20
2018-10-18T04:46:11.999Z,6.20
2018-10-18T04:48:40.294Z,6.20
2018-10-18T04:51:08.783Z,6.30
2018-10-18T04:53:37.075Z,6.30
2018-10-18T04:56:05.630Z,6.30
2018-10-18T04:58:33.917Z,6.20
2018-10-18T05:01:02.379Z,6.20
2018-10-18T05:03:30.803Z,6.20
2018-10-18T05:06:00.749Z,6.20
2018-10-18T05:08:29.419Z,6.10
2018-10-18T05:10:57.683Z,6.10
2018-10-18T05:13:26.095Z,6.10
2018-10-18T05:15:54.648Z,6.10
2018-10-18T05:18:23.238Z,6.10
2018-10-18T05:20:51.567Z,6.00
2018-10-18T05:23:19.835Z,6.00
2018-10-18T05:25:48.899Z,6.10
2018-10-18T05:28:18.000Z,6.10
2018-10-18T05:30:46.596Z,6.10
2018-10-18T05:33:14.848Z,6.10
2018-10-18T05:35:43.433Z,6.20
2018-10-18T05:38:12.039Z,6.30
2018-10-18T05:40:40.479Z,6.30
2018-10-18T05:43:08.833Z,6.20
2018-10-18T05:45:37.568Z,6.20
2018-10-18T05:48:06.285Z,6.20
2018-10-18T05:50:34.797Z,6.20
2018-10-18T05:53:03.128Z,6.20
2018-10-18T05:55:31.912Z,6.20
2018-10-18T05:58:00.669Z,6.20
2018-10-18T06:00:29.649Z,6.30
2018-10-18T06:02:58.057Z,6.40
2018-10-18T06:05:26.741Z,6.40
2018-10-18T06:07:55.490Z,6.50
2018-10-18T06:10:35.216Z,6.50
2018-10-18T06:13:04.384Z,6.60
2018-10-18T06:15:33.312Z,6.60
2018-10-18T06:18:02.189Z,6.80
2018-10-18T06:20:30.853Z,6.90
2018-10-18T06:22:59.331Z,6.90
2018-10-18T06:25:27.803Z,7.00
2018-10-18T06:27:56.434Z,7.10
2018-10-18T06:30:24.838Z,7.30
2018-10-18T06:32:53.540Z,7.40
2018-10-18T06:35:22.105Z,7.50
2018-10-18T06:37:50.777Z,7.60
2018-10-18T06:40:19.469Z,7.70
2018-10-18T06:42:47.951Z,7.90
2018-10-18T06:45:17.606Z,8.00
2018-10-18T06:47:46.463Z,8.10
2018-10-18T06:50:18.251Z,8.20
2018-10-18T06:52:46.745Z,8.30
2018-10-18T06:55:15.338Z,8.40
2018-10-18T06:57:44.376Z,8.60
2018-10-18T07:00:17.911Z,8.70
2018-10-18T07:02:46.737Z,8.80
2018-10-18T07:05:15.842Z,9.00
2018-10-18T07:07:45.062Z,9.20
2018-10-18T07:10:13.918Z,9.60
2018-10-18T07:12:42.704Z,10.40
2018-10-18T07:15:13.660Z,10.80
2018-10-18T07:17:42.809Z,11.40
2018-10-18T07:20:11.981Z,12.00
2018-10-18T07:22:41.028Z,12.20
2018-10-18T07:25:12.086Z,12.30
2018-10-18T07:27:41.293Z,12.60
2018-10-18T07:30:11.621Z,12.90
2018-10-18T07:32:41.004Z,13.20
2018-10-18T07:35:10.858Z,13.50
2018-10-18T07:37:39.826Z,13.70
2018-10-18T07:40:10.764Z,14.30
2018-10-18T07:42:39.317Z,14.60
2018-10-18T07:45:08.808Z,15.00
2018-10-18T07:47:37.436Z,15.20
2018-10-18T07:50:06.499Z,15.20
2018-10-18T07:52:35.271Z,15.30
2018-10-18T07:55:04.193Z,15.50
2018-10-18T07:57:32.857Z,15.90
2018-10-18T08:00:01.410Z,16.30
2018-10-18T08:02:30.618Z,16.30
2018-10-18T08:04:59.307Z,15.70
2018-10-18T08:07:27.744Z,15.50
2018-10-18T08:09:56.512Z,15.80
2018-10-18T08:12:25.277Z,16.60
2018-10-18T08:14:53.683Z,17.20
2018-10-18T08:17:22.369Z,17.50
2018-10-18T08:19:51.240Z,17.80
2018-10-18T08:22:19.657Z,18.10
2018-10-18T08:24:48.259Z,18.10
2018-10-18T08:27:16.992Z,18.20
2018-10-18T08:29:45.658Z,18.10
2018-10-18T08:32:15.004Z,17.50
2018-10-18T08:34:43.572Z,17.30
2018-10-18T08:37:12.144Z,17.40
2018-10-18T08:39:40.691Z,17.40
2018-10-18T08:42:09.065Z,17.40
2018-10-18T08:44:37.544Z,17.40
2018-10-18T08:47:08.456Z,17.50
2018-10-18T08:49:37.286Z,17.60
2018-10-18T08:52:06.173Z,17.60
2018-10-18T08:54:34.673Z,17.60
2018-10-18T08:57:03.466Z,17.50
2018-10-18T08:59:32.528Z,18.00
2018-10-18T09:02:01.520Z,18.50
2018-10-18T09:04:29.894Z,19.30
2018-10-18T09:06:58.617Z,19.90
2018-10-18T09:09:27.457Z,20.40
2018-10-18T09:11:55.857Z,20.70
2018-10-18T09:14:24.401Z,21.30
2018-10-18T09:16:53.359Z,21.90
2018-10-18T09:19:21.782Z,22.30
2018-10-18T09:21:50.496Z,22.60
2018-10-18T09:24:19.256Z,23.00
2018-10-18T09:26:47.755Z,23.40
2018-10-18T09:29:16.448Z,23.00
2018-10-18T09:31:45.229Z,23.20
2018-10-18T09:34:13.656Z,23.30
2018-10-18T09:36:42.382Z,23.60
2018-10-18T09:39:10.802Z,23.90
2018-10-18T09:41:39.979Z,23.70
2018-10-18T09:44:08.638Z,23.50
2018-10-18T09:46:37.806Z,24.10
2018-10-18T09:49:06.565Z,24.40
2018-10-18T09:51:35.115Z,24.50
2018-10-18T09:54:04.042Z,23.80
2018-10-18T09:56:33.102Z,23.30
2018-10-18T09:59:01.792Z,23.50
2018-10-18T10:01:35.769Z,23.00
2018-10-18T10:04:04.430Z,23.00
2018-10-18T10:06:32.991Z,22.90
2018-10-18T10:09:01.648Z,23.00
2018-10-18T10:11:30.038Z,23.00
2018-10-18T10:13:58.644Z,22.70
2018-10-18T10:16:27.036Z,22.10
2018-10-18T10:18:55.661Z,21.40
2018-10-18T10:21:24.557Z,21.30
2018-10-18T10:23:53.552Z,21.00
2018-10-18T10:26:22.246Z,20.90
2018-10-18T10:28:50.620Z,20.80
2018-10-18T10:31:19.237Z,20.80
2018-10-18T10:33:47.796Z,20.60
2018-10-18T10:36:16.668Z,20.50
2018-10-18T10:38:45.148Z,20.60
2018-10-18T10:41:13.833Z,20.90
2018-10-18T10:43:42.564Z,21.10
2018-10-18T10:46:11.297Z,21.10
2018-10-18T10:48:40.273Z,21.30
2018-10-18T10:51:08.820Z,21.30
2018-10-18T10:53:37.509Z,21.40
2018-10-18T10:56:06.154Z,21.50
2018-10-18T10:58:34.743Z,21.30
2018-10-18T11:01:08.507Z,21.30
2018-10-18T11:03:37.562Z,21.10
2018-10-18T11:06:06.336Z,21.10
2018-10-18T11:08:35.565Z,21.00
2018-10-18T11:11:04.105Z,21.00
2018-10-18T11:13:32.798Z,21.00
2018-10-18T11:16:02.535Z,21.10
2018-10-18T11:18:32.408Z,21.70
2018-10-18T11:21:01.988Z,22.60
2018-10-18T11:23:31.048Z,23.50
2018-10-18T11:25:59.465Z,24.30
2018-10-18T11:28:28.411Z,24.60
2018-10-18T11:30:56.793Z,24.30
2018-10-18T11:33:25.466Z,23.50
2018-10-18T11:35:54.083Z,23.00
2018-10-18T11:38:22.929Z,22.70
2018-10-18T11:40:51.388Z,22.10
2018-10-18T11:43:19.830Z,21.70
2018-10-18T11:45:48.552Z,21.40
2018-10-18T11:48:17.152Z,21.40
2018-10-18T11:50:45.859Z,21.70
2018-10-18T11:53:14.534Z,22.40
2018-10-18T11:55:42.920Z,22.80
2018-10-18T11:58:12.345Z,23.00
2018-10-18T12:00:40.817Z,23.10
2018-10-18T12:03:09.386Z,22.90
2018-10-18T12:05:38.497Z,22.50
2018-10-18T12:08:07.371Z,21.90
2018-10-18T12:10:36.118Z,21.40
2018-10-18T12:13:04.517Z,21.20
2018-10-18T12:15:33.905Z,21.00
2018-10-18T12:18:02.321Z,20.80
2018-10-18T12:20:31.010Z,20.60
2018-10-18T12:22:59.521Z,20.40
2018-10-18T12:25:28.040Z,20.30
2018-10-18T12:27:56.862Z,20.10
2018-10-18T12:30:25.500Z,20.10
2018-10-18T12:32:53.897Z,20.10
2018-10-18T12:35:22.575Z,20.20
2018-10-18T12:37:51.181Z,20.10
2018-10-18T12:40:19.573Z,20.00
2018-10-18T12:42:49.852Z,19.80
2018-10-18T12:45:18.229Z,19.90
2018-10-18T12:47:47.006Z,19.80
2018-10-18T12:50:17.212Z,19.70
2018-10-18T12:52:45.749Z,19.70
2018-10-18T12:55:14.173Z,19.50
2018-10-18T12:57:42.907Z,19.30
2018-10-18T13:00:11.974Z,19.50
2018-10-18T13:02:40.569Z,19.30
2018-10-18T13:05:10.087Z,19.10
2018-10-18T13:07:38.763Z,19.00
2018-10-18T13:10:09.093Z,19.00
2018-10-18T13:12:37.693Z,18.80
2018-10-18T13:15:07.677Z,18.90
2018-10-18T13:17:36.253Z,18.80
2018-10-18T13:20:05.555Z,18.90
2018-10-18T13:22:34.100Z,18.80
2018-10-18T13:25:03.091Z,18.70
2018-10-18T13:27:31.761Z,18.80
2018-10-18T13:30:00.217Z,18.70
2018-10-18T13:32:29.506Z,18.80
2018-10-18T13:34:57.881Z,18.70
2018-10-18T13:37:26.538Z,18.70
2018-10-18T13:39:55.149Z,18.70
2018-10-18T13:42:23.635Z,18.70
2018-10-18T13:44:52.076Z,18.60
2018-10-18T13:47:24.095Z,18.60
2018-10-18T13:49:52.710Z,18.60
2018-10-18T13:52:22.132Z,18.70
2018-10-18T13:54:50.564Z,18.60
2018-10-18T13:57:19.436Z,18.50
2018-10-18T14:00:00.770Z,18.50
2018-10-18T14:02:29.525Z,18.40
2018-10-18T14:04:58.208Z,18.40
2018-10-18T14:07:27.166Z,18.30
2018-10-18T14:09:55.604Z,18.20
2018-10-18T14:12:24.072Z,18.10
2018-10-18T14:14:52.581Z,18.10
2018-10-18T14:17:21.524Z,18.10
2018-10-18T14:19:49.985Z,18.10
2018-10-18T14:22:18.663Z,18.10
2018-10-18T14:24:47.060Z,18.10
2018-10-18T14:27:15.446Z,18.10
2018-10-18T14:29:44.021Z,18.00
2018-10-18T14:32:12.433Z,18.00
2018-10-18T14:34:40.972Z,17.90
2018-10-18T14:37:09.382Z,17.90
2018-10-18T14:39:37.780Z,17.80
2018-10-18T14:42:06.391Z,17.80
2018-10-18T14:44:35.139Z,17.60
2018-10-18T14:47:03.788Z,17.70
2018-10-18T14:49:32.352Z,17.80
2018-10-18T14:52:01.019Z,17.60
2018-10-18T14:54:29.596Z,17.60
2018-10-18T14:56:57.993Z,17.50
2018-10-18T14:59:26.610Z,17.40
2018-10-18T15:01:55.011Z,17.30
2018-10-18T15:04:23.799Z,17.20
2018-10-18T15:06:52.616Z,17.20
2018-10-18T15:09:21.269Z,17.10
2018-10-18T15:11:49.940Z,17.20
2018-10-18T15:14:18.890Z,17.10
2018-10-18T15:16:47.486Z,17.10
2018-10-18T15:19:16.236Z,17.10
2018-10-18T15:21:44.853Z,17.10
2018-10-18T15:24:13.224Z,17.10
2018-10-18T15:26:42.006Z,17.00
2018-10-18T15:29:12.292Z,16.90
2018-10-18T15:31:41.065Z,16.80
2018-10-18T15:34:09.720Z,16.70
2018-10-18T15:36:38.142Z,16.60
2018-10-18T15:39:11.198Z,16.50
2018-10-18T15:41:40.600Z,16.50
2018-10-18T15:44:09.885Z,16.50
2018-10-18T15:46:38.658Z,16.40
2018-10-18T15:49:07.744Z,16.30
2018-10-18T15:51:37.128Z,16.30
2018-10-18T15:54:06.726Z,16.20
2018-10-18T15:56:35.956Z,16.10
2018-10-18T15:59:05.142Z,15.90
2018-10-18T16:01:33.989Z,15.80
2018-10-18T16:04:02.650Z,15.70
2018-10-18T16:06:31.711Z,15.60
2018-10-18T16:09:00.468Z,15.40
2018-10-18T16:11:29.139Z,15.30
2018-10-18T16:13:57.780Z,15.20
2018-10-18T16:16:26.309Z,15.10
2018-10-18T16:18:57.129Z,15.00
2018-10-18T16:21:25.808Z,14.90
2018-10-18T16:23:54.196Z,14.70
2018-10-18T16:26:22.982Z,14.60
2018-10-18T16:28:51.498Z,14.50
2018-10-18T16:31:20.224Z,14.40
2018-10-18T16:33:48.808Z,14.40
2018-10-18T16:36:17.615Z,14.30
2018-10-18T16:38:46.305Z,14.30
2018-10-18T16:41:14.884Z,14.10
2018-10-18T16:43:43.554Z,14.10
2018-10-18T16:46:12.210Z,14.00
2018-10-18T16:48:41.070Z,14.00
2018-10-18T16:51:09.465Z,13.90
2018-10-18T16:53:37.861Z,13.80
2018-10-18T16:56:06.754Z,13.70
2018-10-18T16:58:36.056Z,13.70
2018-10-18T17:01:04.780Z,13.60
2018-10-18T17:03:33.290Z,13.60
2018-10-18T17:06:02.018Z,13.50
2018-10-18T17:08:30.663Z,13.50
2018-10-18T17:10:59.118Z,13.40
2018-10-18T17:13:27.580Z,13.30
2018-10-18T17:15:56.023Z,13.30
2018-10-18T17:18:24.949Z,13.30
2018-10-18T17:20:53.771Z,13.20
2018-10-18T17:23:22.532Z,13.20
2018-10-18T17:25:51.125Z,13.20
2018-10-18T17:28:19.532Z,13.10
2018-10-18T17:30:47.950Z,13.00
2018-10-18T17:33:16.632Z,13.00
2018-10-18T17:35:45.255Z,13.00
2018-10-18T17:38:13.701Z,12.90
2018-10-18T17:40:42.569Z,12.90
2018-10-18T17:43:11.077Z,12.80
2018-10-18T17:45:39.450Z,12.80
2018-10-18T17:48:08.280Z,12.80
2018-10-18T17:50:37.801Z,12.70
2018-10-18T17:53:06.573Z,12.70
2018-10-18T17:55:35.090Z,12.60
2018-10-18T17:58:03.619Z,12.60
2018-10-18T18:00:32.389Z,12.60
2018-10-18T18:03:01.183Z,12.60
2018-10-18T18:05:29.613Z,12.50
2018-10-18T18:07:58.393Z,12.50
2018-10-18T18:10:27.083Z,12.50
2018-10-18T18:12:55.634Z,12.40
2018-10-18T18:15:24.434Z,12.30
2018-10-18T18:17:52.903Z,12.30
2018-10-18T18:20:21.328Z,12.20
2018-10-18T18:22:49.785Z,12.20
2018-10-18T18:25:18.392Z,12.10
2018-10-18T18:27:47.181Z,12.10
2018-10-18T18:30:15.809Z,12.00
2018-10-18T18:32:44.447Z,12.00
2018-10-18T18:35:13.093Z,12.00
2018-10-18T18:37:41.747Z,12.00
2018-10-18T18:40:10.716Z,11.90
2018-10-18T18:42:39.796Z,11.80
2018-10-18T18:45:14.709Z,11.80
2018-10-18T18:47:43.196Z,11.80
2018-10-18T18:50:11.672Z,11.80
2018-10-18T18:52:39.986Z,11.80
2018-10-18T18:55:09.664Z,11.70
2018-10-18T18:57:38.457Z,11.70
2018-10-18T19:00:07.985Z,11.60
2018-10-18T19:02:36.800Z,11.50
2018-10-18T19:05:06.736Z,11.50
2018-10-18T19:07:35.164Z,11.50
2018-10-18T19:10:03.728Z,11.40
2018-10-18T19:12:32.300Z,11.40
2018-10-18T19:15:00.778Z,11.40
2018-10-18T19:17:29.314Z,11.40
2018-10-18T19:19:57.921Z,11.30
2018-10-18T19:22:26.255Z,11.30
2018-10-18T19:24:55.335Z,11.30
2018-10-18T19:27:23.744Z,11.20
2018-10-18T19:29:52.572Z,11.20
2018-10-18T19:32:21.493Z,11.20
2018-10-18T19:34:49.957Z,11.20
2018-10-18T19:37:18.547Z,11.10
2018-10-18T19:39:46.867Z,11.10
2018-10-18T19:42:15.156Z,11.00
2018-10-18T19:44:43.849Z,11.00
2018-10-18T19:47:12.780Z,11.00
2018-10-18T19:49:41.336Z,11.00
2018-10-18T19:52:10.083Z,10.90
2018-10-18T19:54:38.401Z,11.00
2018-10-18T19:57:16.517Z,10.90
2018-10-18T19:59:44.912Z,10.90
2018-10-18T20:02:13.680Z,10.90
2018-10-18T20:04:42.154Z,10.80
2018-10-18T20:07:10.932Z,10.80
2018-10-18T20:09:39.273Z,10.70
2018-10-18T20:12:08.101Z,10.70
2018-10-18T20:14:36.621Z,10.70
2018-10-18T20:17:07.036Z,10.70
2018-10-18T20:19:35.712Z,10.60
2018-10-18T20:22:06.505Z,10.50
2018-10-18T20:24:35.029Z,10.50
2018-10-18T20:27:03.831Z,10.60
2018-10-18T20:29:32.125Z,10.60
2018-10-18T20:32:00.952Z,10.50
2018-10-18T20:34:29.239Z,10.50
2018-10-18T20:36:57.784Z,10.50
2018-10-18T20:39:26.081Z,10.40
2018-10-18T20:41:54.348Z,10.40
2018-10-18T20:44:22.735Z,10.40
2018-10-18T20:46:51.857Z,10.40
2018-10-18T20:49:20.224Z,10.30
2018-10-18T20:51:48.988Z,10.30
2018-10-18T20:54:17.429Z,10.20
2018-10-18T20:56:45.879Z,10.20
2018-10-18T20:59:14.325Z,10.20
2018-10-18T21:01:43.444Z,10.20
2018-10-18T21:04:11.724Z,10.20
2018-10-18T21:06:40.860Z,10.10
2018-10-18T21:09:10.461Z,10.00
2018-10-18T21:11:38.973Z,10.00
2018-10-18T21:14:07.581Z,10.00
2018-10-18T21:16:35.864Z,9.90
2018-10-18T21:19:04.536Z,10.10
2018-10-18T21:21:33.927Z,10.00
2018-10-18T21:24:02.212Z,10.00
2018-10-18T21:26:30.843Z,9.90
2018-10-18T21:28:59.149Z,9.80
2018-10-18T21:31:27.956Z,9.70
2018-10-18T21:33:56.398Z,9.70
2018-10-18T21:36:25.290Z,9.70
2018-10-18T21:38:53.704Z,9.70
2018-10-18T21:41:22.144Z,9.70
2018-10-18T21:43:50.400Z,9.70
2018-10-18T21:46:19.040Z,9.70
2018-10-18T21:48:47.442Z,9.60
2018-10-18T21:51:15.931Z,9.60
2018-10-18T21:53:44.386Z,9.60
2018-10-18T21:56:12.965Z,9.60
2018-10-18T21:58:41.803Z,9.60
2018-10-18T22:01:10.192Z,9.50
2018-10-18T22:03:38.528Z,9.50
2018-10-18T22:06:07.148Z,9.50
2018-10-18T22:08:35.792Z,9.40
2018-10-18T22:11:04.863Z,9.40
2018-10-18T22:13:33.358Z,9.40
2018-10-18T22:16:02.256Z,9.40
2018-10-18T22:18:30.863Z,9.40
2018-10-18T22:20:59.427Z,9.40
2018-10-18T22:23:27.903Z,9.30
2018-10-18T22:25:56.451Z,9.30
2018-10-18T22:28:25.056Z,9.30
2018-10-18T22:30:53.411Z,9.20
2018-10-18T22:33:21.692Z,9.20
2018-10-18T22:35:50.082Z,9.10
2018-10-18T22:38:18.644Z,9.10
2018-10-18T22:40:47.264Z,9.10
2018-10-18T22:43:15.777Z,9.10
2018-10-18T22:45:48.305Z,9.10
2018-10-18T22:48:17.068Z,9.00
2018-10-18T22:50:45.620Z,9.00
2018-10-18T22:53:14.324Z,8.90
2018-10-18T22:55:42.917Z,8.90
2018-10-18T22:58:11.187Z,8.80
2018-10-18T23:00:39.468Z,8.80
2018-10-18T23:03:08.985Z,8.90
2018-10-18T23:05:37.664Z,8.90
2018-10-18T23:08:06.310Z,8.80
2018-10-18T23:10:34.853Z,8.80
2018-10-18T23:13:03.828Z,8.80
2018-10-18T23:15:32.249Z,8.80
2018-10-18T23:18:00.605Z,8.70
2018-10-18T23:20:28.947Z,8.60
2018-10-18T23:22:57.640Z,8.60
2018-10-18T23:25:26.389Z,8.50
2018-10-18T23:27:54.676Z,8.50
2018-10-18T23:30:23.240Z,8.50
2018-10-18T23:32:51.854Z,8.50
2018-10-18T23:35:20.343Z,8.50
2018-10-18T23:37:49.036Z,8.50
2018-10-18T23:40:17.633Z,8.50
2018-10-18T23:42:46.227Z,8.50
2018-10-18T23:45:14.829Z,8.50
2018-10-18T23:47:43.594Z,8.40
2018-10-18T23:50:12.133Z,8.40
2018-10-18T23:52:40.527Z,8.30
2018-10-18T23:55:08.791Z,8.30
2018-10-18T23:57:37.368Z,8.30
